x

South Brooks (46132) Wave Buoy

3:00am - Sun 11th Dec 2016 All times are PST. -8 hours from GMT.

  • Sig Wave height 7.5ft
  • Peak Period 9s
  • Wind
    11mph, 16mph gusts
  • Sea Temp 53°f
  • 空気 Temp 47°f
  • Sea Pressure 1007.5mb
  • South Brooks
  • South Brooks

More Historic Weather Station data

Upgrade to MSW Pro to gain access to the past 30 days of data for over 8000 Wavebouys and Weather Stations around the globe.

Join Pro

Comparision Forecast

View Surf forecast
   
Sun 12/11 3:00am 7.5ft 9s 11 16 mph 1007.5mb 53f 47f
2:00am 8ft 10s 7 9 mph 1007.2mb 53f 46f
1:00am 9ft 10s 2 4 mph 1006.9mb 53f 46f
12:00am 8.5ft 11s 4 7 mph 1006.6mb 53f 46f
Sat 12/10 11:00pm 9ft 12s 2 7 mph 1006.4mb 53f 46f
10:00pm 9ft 11s 7 11 mph 1005.9mb 53f 46f
9:00pm 9ft 11s 7 9 mph 1005.5mb 53f 45f
8:00pm 8.5ft 12s 9 13 mph 1005.3mb 52f 46f
7:00pm 8ft 12s 9 11 mph 1005mb 52f 46f
6:00pm 8.5ft 12s 7 11 mph 1004.9mb 52f 44f
5:00pm 8.5ft 12s 7 9 mph 1004.5mb 52f 45f
4:00pm 9.5ft 12s 11 16 mph 1003.6mb 52f 45f
3:00pm 10.5ft 12s 18 25 mph 1002.7mb 52f 45f
2:00pm 10.5ft 12s 22 27 mph 1002mb 52f 44f
1:00pm 12ft 8s 27 31 mph 1001.2mb 52f 45f
12:00pm 12ft 10s 31 36 mph 1000.4mb 52f 45f
11:00am 12.5ft 11s 34 40 mph 1000.4mb 52f 45f
10:00am 13ft 7s 31 40 mph 1000.3mb 52f 44f
9:00am 13ft 11s 34 40 mph 999.9mb 52f 44f
8:00am 12ft 7s 36 45 mph 999.7mb 53f 45f
7:00am 11ft 11s 34 43 mph 999.8mb 53f 45f
6:00am 10ft 11s 31 40 mph 1000.2mb 53f 46f
5:00am 9.5ft 11s 29 36 mph 1000.8mb 53f 46f
4:00am 9ft 12s 27 34 mph 1002.1mb 53f 47f
3:00am 10ft 11s 27 31 mph 1002.7mb 53f 47f
2:00am 10ft 12s 18 25 mph 1003.6mb 53f 48f
1:00am 9ft 11s 16 22 mph 1004.2mb 52f 47f
12:00am 10ft 12s 13 22 mph 1004.7mb 52f 44f
Fri 12/09 11:00pm 11ft 11s 11 16 mph 1004.7mb 52f 46f
10:00pm 14ft 10s 9 13 mph 1004.5mb 52f 46f
9:00pm 14ft 11s 9 13 mph 1004.3mb 52f 46f
8:00pm 14.5ft 12s 11 20 mph 1004.1mb 52f 45f
7:00pm 15.5ft 11s 18 22 mph 1003.7mb 53f 46f
6:00pm 15.5ft 12s 16 25 mph 1003.7mb 53f 45f
5:00pm 14ft 10s 20 25 mph 1003.9mb 52f 44f
4:00pm 15ft 11s 20 27 mph 1004.5mb 52f 43f
3:00pm 14ft 11s 16 29 mph 1005.4mb 52f 43f
2:00pm 14ft 11s 20 25 mph 1005.3mb 52f 48f
1:00pm 13ft 12s 18 20 mph 1006.1mb 52f 47f
12:00pm 13ft 11s 20 25 mph 1006.5mb 52f 47f
11:00am 14ft 10s 22 27 mph 1006.4mb 52f 47f
10:00am 14ft 11s 13 18 mph 1006.8mb 52f 46f
9:00am 15ft 10s 22 29 mph 1006.3mb 52f 47f
8:00am 15.5ft 10s 22 27 mph 1005.7mb 52f 48f
7:00am 13.5ft 10s 22 29 mph 1005.6mb 53f 47f
6:00am 15.5ft 10s 22 31 mph 1004.9mb 52f 48f
5:00am 16.5ft 10s 18 29 mph 1004.9mb 52f 46f
4:00am 19.5ft 11s 40 51 mph 1003.7mb 52f 44f
3:00am 20.5ft 11s 45 54 mph 1003.3mb 52f 43f
2:00am 17.5ft 10s 43 54 mph 1003.3mb 52f 42f
1:00am 16.5ft 10s 40 49 mph 1003.5mb 52f 41f
12:00am 14.5ft 9s 40 47 mph 1004.4mb 52f 40f
Thu 12/08 11:00pm 13.5ft 10s 36 45 mph 1005.4mb 52f 41f
10:00pm 13ft 9s 38 45 mph 1006.1mb 52f 41f
9:00pm 11.5ft 9s 27 45 mph 1006.2mb 52f 46f
8:00pm 10.5ft 10s 22 29 mph 1006.4mb 52f 46f
7:00pm 10ft 8s 22 29 mph 1006.7mb 52f 46f
6:00pm 9ft 9s 25 31 mph 1007mb 51f 46f
5:00pm 8.5ft 8s 22 31 mph 1007.8mb 51f 46f
4:00pm 8.5ft 9s 20 27 mph 1008.5mb 51f 46f
3:00pm 8ft 9s 18 22 mph 1009mb 51f 45f
2:00pm 8ft 8s 18 22 mph 1009.9mb 51f 45f
1:00pm 7ft 9s 20 27 mph 1011mb 51f 44f
12:00pm 7.5ft 8s 16 20 mph 1012.5mb 51f 43f
11:00am 7ft 8s 13 18 mph 1013.5mb 51f 43f
10:00am 7ft 8s 16 20 mph 1013.8mb 51f 42f
9:00am 6.5ft 7s 13 18 mph 1014.5mb 51f 41f
8:00am 6ft 7s 13 18 mph 1015.3mb 51f 41f
7:00am 6ft 7s 11 18 mph 1016.1mb 51f 41f
6:00am 6ft 7s 11 16 mph 1016.8mb 51f 41f
5:00am 5.5ft 7s 13 16 mph 1017.8mb 51f 41f
4:00am 6ft 7s 13 18 mph 1018.6mb 51f 41f
3:00am 5.5ft 7s 13 18 mph 1019.6mb 51f 41f
2:00am 5.5ft 12s 13 18 mph 1020.4mb 51f 42f
1:00am 6ft 13s 13 18 mph 1021.3mb 51f 41f
12:00am 5ft 13s 13 18 mph 1021.8mb 51f 42f
Wed 12/07 11:00pm 5.5ft 13s 13 16 mph 1022.8mb 51f 42f
10:00pm 5.5ft 13s 13 18 mph 1023.5mb 51f 42f
9:00pm 6ft 14s 11 16 mph 1023.8mb 51f 42f
8:00pm 6ft 13s 11 18 mph 1024.4mb 52f 43f
7:00pm 6.5ft 14s 9 13 mph 1025.3mb 52f 43f
6:00pm 7ft 14s 11 13 mph 1025.8mb 52f 43f
5:00pm 6.5ft 7s 13 18 mph 1026.3mb 52f 43f
4:00pm 7ft 14s 18 22 mph 1026.7mb 52f 43f
3:00pm 7ft 7s 18 22 mph 1026.9mb 52f 43f
2:00pm 7ft 7s 20 22 mph 1027.2mb 52f 43f
1:00pm 7ft 7s 18 25 mph 1027.9mb 52f 43f